createdAt,value
2019-05-18T00:01:51.843Z,55.85
2019-05-18T00:04:22.439Z,56.33
2019-05-18T00:06:52.990Z,56.95
2019-05-18T00:09:23.514Z,56.98
2019-05-18T00:11:54.102Z,56.28
2019-05-18T00:14:24.739Z,60.90
2019-05-18T00:16:55.319Z,60.63
2019-05-18T00:19:25.989Z,65.08
2019-05-18T00:21:56.484Z,57.20
2019-05-18T00:24:27.015Z,58.13
2019-05-18T00:26:57.517Z,62.03
2019-05-18T00:29:27.988Z,59.80
2019-05-18T00:31:58.648Z,63.52
2019-05-18T00:34:29.274Z,61.65
2019-05-18T00:36:59.824Z,62.53
2019-05-18T00:39:30.379Z,69.77
2019-05-18T00:42:00.955Z,68.60
2019-05-18T00:44:31.470Z,68.97
2019-05-18T00:47:02.029Z,70.20
2019-05-18T00:49:32.633Z,68.47
2019-05-18T00:52:03.152Z,69.03
2019-05-18T00:54:33.753Z,75.20
2019-05-18T00:57:04.283Z,70.92
2019-05-18T00:59:34.853Z,68.52
2019-05-18T01:02:05.409Z,80.83
2019-05-18T01:04:35.961Z,74.90
2019-05-18T01:07:06.805Z,71.25
2019-05-18T01:09:37.566Z,66.45
2019-05-18T01:12:08.136Z,66.17
2019-05-18T01:14:38.610Z,70.25
2019-05-18T01:17:09.451Z,71.90
2019-05-18T01:19:40.831Z,66.60
2019-05-18T01:22:11.356Z,69.87
2019-05-18T01:24:41.907Z,67.60
2019-05-18T01:27:12.512Z,63.38
2019-05-18T01:29:43.046Z,66.67
2019-05-18T01:32:13.749Z,58.50
2019-05-18T01:34:44.410Z,63.67
2019-05-18T01:37:19.297Z,65.40
2019-05-18T01:39:49.828Z,63.73
2019-05-18T01:42:20.344Z,60.75
2019-05-18T01:44:50.871Z,71.05
2019-05-18T01:47:21.870Z,65.17
2019-05-18T01:49:52.398Z,66.55
2019-05-18T01:52:22.944Z,61.53
2019-05-18T01:54:53.456Z,67.53
2019-05-18T01:57:24.109Z,67.45
2019-05-18T01:59:54.595Z,70.87
2019-05-18T02:02:25.128Z,69.45
2019-05-18T02:04:55.658Z,67.20
2019-05-18T02:07:26.123Z,66.37
2019-05-18T02:09:56.643Z,72.78
2019-05-18T02:12:27.116Z,67.78
2019-05-18T02:14:57.642Z,69.80
2019-05-18T02:17:28.177Z,72.37
2019-05-18T02:19:58.597Z,72.23
2019-05-18T02:22:29.116Z,75.45
2019-05-18T02:24:59.627Z,62.05
2019-05-18T02:27:30.104Z,74.05
2019-05-18T02:30:00.618Z,63.10
2019-05-18T02:32:31.163Z,72.82
2019-05-18T02:35:01.564Z,70.28
2019-05-18T02:37:32.091Z,67.50
2019-05-18T02:40:02.617Z,68.47
2019-05-18T02:42:33.355Z,73.62
2019-05-18T02:45:04.091Z,70.00
2019-05-18T02:47:34.636Z,75.83
2019-05-18T02:50:05.682Z,78.37
2019-05-18T02:52:36.168Z,78.50
2019-05-18T02:55:07.722Z,74.65
2019-05-18T02:57:38.254Z,85.47
2019-05-18T03:00:10.292Z,86.40
2019-05-18T03:02:40.784Z,79.60
2019-05-18T03:05:11.602Z,87.97
2019-05-18T03:07:42.142Z,85.33
2019-05-18T03:10:12.840Z,87.30
2019-05-18T03:12:43.691Z,86.93
2019-05-18T03:15:15.124Z,89.10
2019-05-18T03:17:45.658Z,90.33
2019-05-18T03:20:16.803Z,94.35
2019-05-18T03:22:47.360Z,95.15
2019-05-18T03:25:18.830Z,97.27
2019-05-18T03:27:49.404Z,93.62
2019-05-18T03:30:21.919Z,107.90
2019-05-18T03:32:52.555Z,94.50
2019-05-18T03:35:23.270Z,97.15
2019-05-18T03:37:53.906Z,90.83
2019-05-18T03:40:24.413Z,100.35
2019-05-18T04:09:52.338Z,99.17
2019-05-18T04:12:22.977Z,104.58
2019-05-18T04:14:53.590Z,100.27
2019-05-18T04:17:24.346Z,100.55
2019-05-18T04:19:54.883Z,94.37
2019-05-18T04:22:25.471Z,92.35
2019-05-18T04:24:56.246Z,98.00
2019-05-18T04:27:26.917Z,83.15
2019-05-18T04:29:57.589Z,81.77
2019-05-18T04:32:28.220Z,82.17
2019-05-18T04:34:58.880Z,75.40
2019-05-18T04:37:29.510Z,78.12
2019-05-18T04:40:00.399Z,80.57
2019-05-18T04:42:31.029Z,76.17
2019-05-18T04:45:01.621Z,72.47
2019-05-18T04:47:32.256Z,79.45
2019-05-18T04:50:05.722Z,70.50
2019-05-18T04:52:35.262Z,76.05
2019-05-18T04:55:06.011Z,72.80
2019-05-18T04:57:36.674Z,67.82
2019-05-18T05:00:08.774Z,63.13
2019-05-18T05:02:39.392Z,71.50
2019-05-18T05:05:10.313Z,70.72
2019-05-18T05:07:40.970Z,63.70
2019-05-18T05:10:11.838Z,66.87
2019-05-18T05:12:42.464Z,67.80
2019-05-18T05:15:13.688Z,65.75
2019-05-18T05:17:44.322Z,64.12
2019-05-18T05:20:20.140Z,58.58
2019-05-18T05:22:49.397Z,61.42
2019-05-18T05:25:20.241Z,57.83
2019-05-18T05:27:50.909Z,59.58
2019-05-18T05:30:21.519Z,61.20
2019-05-18T05:32:52.034Z,62.05
2019-05-18T05:35:22.563Z,57.38
2019-05-18T05:37:53.083Z,61.15
2019-05-18T05:40:23.722Z,54.48
2019-05-18T05:42:54.246Z,53.13
2019-05-18T05:45:24.821Z,54.93
2019-05-18T05:47:55.350Z,54.70
2019-05-18T05:50:35.090Z,51.55
2019-05-18T05:52:58.200Z,51.45
2019-05-18T05:55:28.983Z,55.05
2019-05-18T05:57:59.632Z,45.53
2019-05-18T06:00:30.187Z,45.00
2019-05-18T06:03:00.670Z,49.33
2019-05-18T06:05:31.340Z,49.30
2019-05-18T06:08:01.945Z,47.80
2019-05-18T06:10:32.507Z,47.48
2019-05-18T06:13:03.066Z,48.17
2019-05-18T06:15:33.644Z,43.27
2019-05-18T06:18:04.207Z,49.35
2019-05-18T06:20:50.130Z,44.20
2019-05-18T06:23:06.947Z,47.93
2019-05-18T06:25:37.538Z,50.63
2019-05-18T06:28:08.060Z,41.10
2019-05-18T06:30:39.396Z,44.60
2019-05-18T06:33:09.901Z,43.45
2019-05-18T06:35:40.414Z,45.23
2019-05-18T06:38:10.968Z,43.10
2019-05-18T06:40:41.477Z,39.70
2019-05-18T06:43:12.036Z,47.53
2019-05-18T06:45:42.548Z,44.88
2019-05-18T06:48:13.101Z,42.50
2019-05-18T06:50:44.775Z,45.00
2019-05-18T06:53:15.383Z,41.60
2019-05-18T06:55:45.934Z,38.92
2019-05-18T06:58:17.062Z,39.00
2019-05-18T07:00:47.612Z,42.40
2019-05-18T07:03:18.148Z,42.27
2019-05-18T07:05:48.582Z,35.38
2019-05-18T07:08:19.130Z,42.90
2019-05-18T07:10:49.628Z,41.23
2019-05-18T07:13:20.109Z,39.33
2019-05-18T07:15:50.813Z,45.03
2019-05-18T07:18:21.348Z,40.65
2019-05-18T07:20:51.884Z,38.60
2019-05-18T07:23:22.517Z,37.50
2019-05-18T07:25:53.036Z,41.90
2019-05-18T07:28:23.577Z,45.10
2019-05-18T07:30:54.133Z,39.30
2019-05-18T07:33:24.825Z,41.30
2019-05-18T07:35:55.424Z,40.75
2019-05-18T07:38:26.216Z,37.20
2019-05-18T07:40:57.090Z,36.13
2019-05-18T07:43:27.851Z,40.48
2019-05-18T07:46:08.661Z,41.03
2019-05-18T07:48:38.456Z,36.33
2019-05-18T07:51:09.242Z,35.17
2019-05-18T07:53:39.811Z,37.73
2019-05-18T07:56:10.448Z,39.13
2019-05-18T07:58:41.146Z,35.75
2019-05-18T08:01:11.684Z,38.10
2019-05-18T08:03:42.244Z,34.45
2019-05-18T08:06:12.781Z,32.23
2019-05-18T08:08:43.327Z,30.70
2019-05-18T08:11:13.882Z,38.48
2019-05-18T08:13:44.425Z,38.80
2019-05-18T08:16:14.926Z,33.48
2019-05-18T08:18:45.468Z,26.63
2019-05-18T08:21:16.174Z,27.48
2019-05-18T08:23:46.910Z,27.48
2019-05-18T08:26:17.443Z,29.52
2019-05-18T08:28:48.008Z,30.20
2019-05-18T08:31:18.621Z,29.65
2019-05-18T08:33:49.137Z,29.83
2019-05-18T08:36:19.751Z,28.40
2019-05-18T08:38:50.290Z,29.67
2019-05-18T08:41:20.772Z,29.13
2019-05-18T08:43:51.267Z,30.85
2019-05-18T08:46:21.728Z,32.40
2019-05-18T08:48:52.418Z,30.02
2019-05-18T08:51:23.087Z,30.43
2019-05-18T08:53:53.673Z,31.00
2019-05-18T08:56:24.234Z,31.17
2019-05-18T08:58:54.730Z,32.73
2019-05-18T09:01:25.211Z,34.58
2019-05-18T09:03:55.751Z,34.48
2019-05-18T09:06:26.302Z,32.78
2019-05-18T09:08:56.778Z,28.90
2019-05-18T09:11:27.258Z,31.42
2019-05-18T09:13:57.833Z,28.30
2019-05-18T09:16:28.333Z,30.27
2019-05-18T09:18:58.797Z,28.27
2019-05-18T09:21:29.430Z,30.08
2019-05-18T09:24:00.429Z,28.45
2019-05-18T09:26:31.241Z,30.77
2019-05-18T09:29:02.112Z,28.12
2019-05-18T09:31:32.683Z,29.45
2019-05-18T09:34:03.215Z,27.80
2019-05-18T09:36:33.782Z,27.13
2019-05-18T09:39:05.021Z,30.10
2019-05-18T09:56:51.377Z,39.38
2019-05-18T09:59:21.850Z,39.58
2019-05-18T10:01:52.545Z,35.88
2019-05-18T10:04:23.094Z,38.17
2019-05-18T10:06:53.700Z,31.77
2019-05-18T10:09:24.408Z,30.27
2019-05-18T10:11:55.005Z,28.27
2019-05-18T10:14:25.624Z,31.50
2019-05-18T10:16:56.186Z,28.38
2019-05-18T10:19:26.737Z,27.07
2019-05-18T10:21:57.328Z,26.43
2019-05-18T10:24:27.852Z,30.32
2019-05-18T10:26:58.426Z,28.67
2019-05-18T10:29:28.994Z,28.23
2019-05-18T10:31:59.538Z,29.37
2019-05-18T10:34:30.206Z,36.53
2019-05-18T10:37:00.700Z,39.50
2019-05-18T10:39:31.358Z,39.78
2019-05-18T10:42:01.917Z,38.35
2019-05-18T10:44:32.454Z,35.48
2019-05-18T10:47:02.998Z,32.70
2019-05-18T10:49:33.700Z,32.38
2019-05-18T10:52:04.764Z,30.05
2019-05-18T10:54:35.784Z,29.87
2019-05-18T10:57:06.359Z,32.60
2019-05-18T10:59:37.695Z,31.50
2019-05-18T11:02:08.423Z,27.87
2019-05-18T11:04:39.015Z,27.85
2019-05-18T11:07:09.547Z,24.70
2019-05-18T11:09:40.266Z,23.50
2019-05-18T11:12:11.048Z,21.02
2019-05-18T11:14:41.595Z,22.87
2019-05-18T11:17:12.155Z,22.50
2019-05-18T11:19:42.681Z,21.02
2019-05-18T11:22:13.450Z,18.12
2019-05-18T11:24:44.017Z,22.75
2019-05-18T11:27:14.583Z,27.80
2019-05-18T11:29:45.124Z,22.15
2019-05-18T11:32:15.669Z,22.32
2019-05-18T11:34:46.309Z,23.42
2019-05-18T11:37:16.846Z,22.65
2019-05-18T11:39:47.481Z,24.43
2019-05-18T11:42:18.062Z,22.40
2019-05-18T11:44:48.626Z,20.77
2019-05-18T11:47:19.699Z,21.90
2019-05-18T11:49:50.256Z,20.75
2019-05-18T11:52:20.808Z,23.20
2019-05-18T11:54:51.425Z,23.67
2019-05-18T11:57:22.064Z,23.60
2019-05-18T11:59:52.701Z,23.00
2019-05-18T12:02:23.288Z,21.23
2019-05-18T12:04:53.777Z,15.15
2019-05-18T12:07:24.317Z,20.95
2019-05-18T12:09:54.950Z,23.95
2019-05-18T12:12:25.547Z,26.10
2019-05-18T12:14:56.190Z,24.75
2019-05-18T12:17:30.652Z,21.82
2019-05-18T12:20:01.162Z,16.45
2019-05-18T12:22:31.731Z,19.90
2019-05-18T12:25:02.313Z,14.13
2019-05-18T12:27:33.155Z,17.00
2019-05-18T12:30:03.777Z,15.50
2019-05-18T12:32:34.233Z,18.55
2019-05-18T12:35:05.253Z,23.02
2019-05-18T12:37:35.804Z,15.67
2019-05-18T12:40:07.209Z,16.80
2019-05-18T12:42:37.773Z,16.60
2019-05-18T12:45:09.752Z,16.85
2019-05-18T12:47:40.313Z,16.10
2019-05-18T12:50:13.446Z,12.37
2019-05-18T12:52:44.037Z,14.73
2019-05-18T12:55:16.371Z,14.75
2019-05-18T12:57:46.881Z,20.68
2019-05-18T13:00:19.012Z,18.05
2019-05-18T13:02:49.729Z,11.50
2019-05-18T13:05:20.417Z,11.65
2019-05-18T13:07:51.003Z,10.85
2019-05-18T13:10:22.169Z,9.90
2019-05-18T13:12:52.719Z,12.80
2019-05-18T13:15:23.791Z,12.35
2019-05-18T13:17:54.460Z,12.50
2019-05-18T13:20:25.055Z,14.23
2019-05-18T13:22:55.598Z,14.00
2019-05-18T13:25:26.146Z,14.47
2019-05-18T13:27:58.117Z,16.23
2019-05-18T13:30:28.998Z,14.95
2019-05-18T13:32:59.618Z,16.70
2019-05-18T13:35:30.152Z,18.48
2019-05-18T13:38:00.974Z,19.77
2019-05-18T13:40:31.483Z,15.40
2019-05-18T13:43:02.084Z,15.95
2019-05-18T13:45:33.292Z,18.52
2019-05-18T13:48:03.860Z,15.68
2019-05-18T13:50:34.405Z,18.32
2019-05-18T13:53:04.965Z,11.63
2019-05-18T13:55:35.901Z,16.75
2019-05-18T13:58:06.808Z,12.63
2019-05-18T14:00:37.437Z,19.87
2019-05-18T14:03:07.955Z,23.47
2019-05-18T14:05:38.488Z,20.30
2019-05-18T14:08:09.081Z,21.73
2019-05-18T14:10:39.633Z,23.90
2019-05-18T14:13:10.163Z,18.87
2019-05-18T14:15:40.754Z,23.90
2019-05-18T14:18:11.370Z,26.05
2019-05-18T14:20:41.899Z,23.73
2019-05-18T14:23:12.565Z,22.13
2019-05-18T14:25:46.053Z,20.97
2019-05-18T14:28:15.457Z,21.27
2019-05-18T14:30:46.094Z,21.02
2019-05-18T14:33:16.810Z,17.45
2019-05-18T14:35:47.411Z,17.35
2019-05-18T14:38:17.978Z,24.47
2019-05-18T14:40:48.527Z,22.05
2019-05-18T14:43:19.071Z,17.20
2019-05-18T14:45:49.761Z,16.67
2019-05-18T14:48:20.438Z,19.02
2019-05-18T14:50:50.930Z,18.37
2019-05-18T14:53:21.581Z,18.55
2019-05-18T14:55:52.183Z,19.55
2019-05-18T14:58:22.784Z,18.65
2019-05-18T15:00:55.049Z,17.75
2019-05-18T15:03:25.725Z,18.48
2019-05-18T15:05:56.260Z,20.48
2019-05-18T15:08:27.245Z,19.98
2019-05-18T15:10:57.749Z,19.32
2019-05-18T15:13:28.290Z,19.95
2019-05-18T15:15:58.843Z,26.60
2019-05-18T15:18:29.487Z,20.37
2019-05-18T15:20:59.974Z,21.33
2019-05-18T15:23:30.678Z,20.10
2019-05-18T15:26:01.322Z,21.87
2019-05-18T15:28:32.025Z,19.45
2019-05-18T15:31:02.736Z,23.55
2019-05-18T15:33:33.274Z,25.32
2019-05-18T15:36:03.849Z,24.67
2019-05-18T15:38:34.445Z,22.27
2019-05-18T15:41:04.875Z,21.13
2019-05-18T15:43:35.357Z,18.37
2019-05-18T15:46:05.855Z,203.40
2019-05-18T15:48:36.408Z,118.80
2019-05-18T15:51:06.904Z,52.80
2019-05-18T15:53:37.403Z,48.13
2019-05-18T15:56:07.865Z,45.30
2019-05-18T15:58:38.388Z,25.85
2019-05-18T16:01:08.906Z,23.95
2019-05-18T16:03:39.399Z,20.17
2019-05-18T16:06:09.867Z,23.70
2019-05-18T16:08:40.382Z,18.12
2019-05-18T16:11:10.856Z,22.87
2019-05-18T16:13:41.362Z,20.25
2019-05-18T16:16:11.840Z,21.80
2019-05-18T16:18:42.685Z,19.52
2019-05-18T16:21:13.175Z,21.60
2019-05-18T16:23:43.662Z,22.67
2019-05-18T16:26:21.702Z,19.60
2019-05-18T16:28:46.381Z,21.87
2019-05-18T16:31:16.865Z,21.67
2019-05-18T16:33:47.354Z,17.87
2019-05-18T16:36:17.807Z,20.62
2019-05-18T16:38:48.346Z,18.00
2019-05-18T16:41:21.460Z,19.80
2019-05-18T16:43:51.056Z,20.00
2019-05-18T16:46:21.652Z,19.03
2019-05-18T16:48:52.110Z,18.55
2019-05-18T16:51:22.568Z,23.67
2019-05-18T16:53:53.110Z,21.37
2019-05-18T16:56:34.510Z,16.83
2019-05-18T16:58:55.788Z,21.30
2019-05-18T17:01:26.285Z,19.87
2019-05-18T17:03:56.820Z,21.10
2019-05-18T17:06:27.385Z,21.23
2019-05-18T17:08:57.992Z,25.50
2019-05-18T17:11:28.499Z,26.10
2019-05-18T17:13:58.971Z,21.77
2019-05-18T17:16:29.493Z,28.67
2019-05-18T17:18:59.962Z,23.90
2019-05-18T17:21:30.436Z,27.17
2019-05-18T17:24:00.932Z,24.67
2019-05-18T17:26:31.546Z,26.27
2019-05-18T17:29:02.048Z,24.82
2019-05-18T17:31:32.634Z,29.47
2019-05-18T17:34:03.079Z,29.67
2019-05-18T17:36:33.758Z,25.37
2019-05-18T17:39:05.520Z,26.23
2019-05-18T17:41:36.010Z,30.50
2019-05-18T17:44:06.495Z,27.10
2019-05-18T17:46:37.000Z,28.40
2019-05-18T17:49:07.526Z,27.80
2019-05-18T17:51:38.039Z,38.93
2019-05-18T17:54:08.600Z,27.47
2019-05-18T17:56:39.074Z,30.20
2019-05-18T17:59:09.590Z,26.60
2019-05-18T18:01:40.119Z,23.70
2019-05-18T18:04:10.605Z,29.20
2019-05-18T18:06:41.069Z,29.90
2019-05-18T18:09:11.587Z,28.53
2019-05-18T18:11:42.080Z,26.00
2019-05-18T18:14:12.566Z,27.30
2019-05-18T18:16:43.076Z,28.93
2019-05-18T18:19:13.567Z,25.40
2019-05-18T18:21:44.053Z,33.50
2019-05-18T18:24:14.658Z,32.30
2019-05-18T18:26:45.129Z,31.77
2019-05-18T18:29:15.702Z,28.67
2019-05-18T18:31:46.303Z,32.00
2019-05-18T18:34:16.841Z,24.77
2019-05-18T18:36:47.553Z,24.00
2019-05-18T18:39:18.115Z,31.00
2019-05-18T18:41:48.634Z,26.63
2019-05-18T18:44:19.205Z,23.40
2019-05-18T18:46:49.719Z,23.00
2019-05-18T18:49:20.170Z,34.83
2019-05-18T18:51:50.674Z,26.93
2019-05-18T18:54:21.218Z,25.60
2019-05-18T18:56:51.716Z,21.20
2019-05-18T18:59:22.257Z,28.67
2019-05-18T19:01:52.769Z,25.50
2019-05-18T19:04:23.270Z,30.70
2019-05-18T19:06:53.871Z,33.83
2019-05-18T19:09:24.382Z,31.82
2019-05-18T19:11:54.929Z,32.67
2019-05-18T19:14:25.440Z,30.88
2019-05-18T19:16:56.002Z,33.75
2019-05-18T19:19:26.475Z,32.08
2019-05-18T19:21:56.954Z,35.28
2019-05-18T19:24:27.513Z,35.20
2019-05-18T19:26:58.044Z,38.65
2019-05-18T19:29:28.582Z,41.30
2019-05-18T19:31:59.146Z,40.78
2019-05-18T19:34:29.652Z,36.73
2019-05-18T19:37:00.146Z,36.93
2019-05-18T19:39:30.674Z,36.17
2019-05-18T19:42:01.260Z,33.18
2019-05-18T19:44:31.699Z,37.38
2019-05-18T19:47:02.268Z,34.27
2019-05-18T19:49:32.817Z,37.25
2019-05-18T19:52:03.281Z,44.18
2019-05-18T19:54:33.870Z,42.17
2019-05-18T19:57:04.376Z,40.90
2019-05-18T19:59:34.839Z,37.40
2019-05-18T20:02:05.652Z,41.33
2019-05-18T20:04:36.145Z,38.20
2019-05-18T20:07:06.635Z,43.70
2019-05-18T20:09:37.175Z,45.85
2019-05-18T20:12:07.661Z,47.03
2019-05-18T20:14:38.149Z,43.02
2019-05-18T20:17:08.713Z,45.55
2019-05-18T20:19:39.949Z,46.37
2019-05-18T20:22:10.664Z,41.15
2019-05-18T20:24:41.281Z,40.48
2019-05-18T20:27:11.746Z,47.08
2019-05-18T20:29:42.280Z,51.88
2019-05-18T20:32:12.883Z,45.63
2019-05-18T20:34:43.363Z,41.83
2019-05-18T20:37:13.909Z,44.03
2019-05-18T20:39:44.365Z,47.20
2019-05-18T20:42:14.877Z,44.50
2019-05-18T20:44:45.404Z,63.17
2019-05-18T20:47:15.904Z,43.52
2019-05-18T20:49:46.435Z,48.65
2019-05-18T20:52:16.913Z,48.33
2019-05-18T20:54:47.420Z,48.87
2019-05-18T20:57:17.929Z,47.78
2019-05-18T20:59:48.422Z,46.57
2019-05-18T21:02:18.916Z,53.98
2019-05-18T21:04:49.517Z,45.55
2019-05-18T21:07:19.997Z,50.60
2019-05-18T21:09:50.515Z,48.58
2019-05-18T21:12:21.012Z,52.53
2019-05-18T21:14:51.514Z,53.03
2019-05-18T21:17:22.066Z,50.05
2019-05-18T21:19:52.521Z,51.53
2019-05-18T21:22:23.021Z,50.40
2019-05-18T21:24:53.609Z,48.95
2019-05-18T21:27:24.094Z,53.02
2019-05-18T21:29:54.565Z,54.80
2019-05-18T21:32:25.057Z,58.90
2019-05-18T21:34:55.589Z,55.45
2019-05-18T21:37:26.081Z,50.23
2019-05-18T21:39:56.594Z,60.60
2019-05-18T21:42:27.146Z,54.30
2019-05-18T21:44:57.637Z,57.45
2019-05-18T21:47:28.191Z,60.85
2019-05-18T21:49:58.892Z,62.95
2019-05-18T21:52:33.277Z,63.37
2019-05-18T21:55:03.827Z,55.45
2019-05-18T21:57:34.355Z,59.95
2019-05-18T22:00:06.660Z,60.93
2019-05-18T22:02:37.300Z,61.58
2019-05-18T22:05:08.505Z,62.90
2019-05-18T22:07:39.120Z,62.17
2019-05-18T22:10:24.906Z,62.00
2019-05-18T22:12:43.554Z,65.25
2019-05-18T22:15:14.659Z,64.70
2019-05-18T22:18:03.486Z,63.27
2019-05-18T22:20:39.867Z,65.40
2019-05-18T22:23:08.605Z,68.20
2019-05-18T22:25:39.152Z,71.33
2019-05-18T22:28:09.638Z,71.65
2019-05-18T22:30:41.275Z,68.90
2019-05-18T22:33:11.785Z,76.70
2019-05-18T22:35:42.283Z,67.32
2019-05-18T22:38:12.791Z,74.62
2019-05-18T22:40:43.320Z,70.65
2019-05-18T22:43:13.791Z,77.32
2019-05-18T22:45:44.312Z,78.80
2019-05-18T22:48:14.851Z,77.55
2019-05-18T22:50:45.473Z,78.60
2019-05-18T22:53:16.017Z,79.90
2019-05-18T22:55:46.561Z,84.72
2019-05-18T22:58:17.059Z,77.30
2019-05-18T23:00:47.566Z,76.77
2019-05-18T23:03:18.201Z,76.22
2019-05-18T23:05:48.786Z,84.37
2019-05-18T23:08:19.300Z,84.28
2019-05-18T23:10:49.786Z,85.63
2019-05-18T23:13:20.297Z,81.35
2019-05-18T23:15:50.900Z,84.35
2019-05-18T23:18:21.734Z,85.67
2019-05-18T23:20:52.299Z,90.85
2019-05-18T23:23:22.828Z,94.55
2019-05-18T23:25:53.378Z,93.58
2019-05-18T23:28:23.880Z,104.50
2019-05-18T23:30:54.362Z,106.03
2019-05-18T23:33:26.508Z,99.92
2019-05-18T23:35:56.996Z,99.47
2019-05-18T23:38:27.562Z,112.90
2019-05-18T23:40:58.045Z,101.00
2019-05-18T23:43:28.944Z,107.15
2019-05-18T23:45:59.556Z,102.55
2019-05-18T23:48:30.095Z,94.37
2019-05-18T23:51:00.568Z,92.45
2019-05-18T23:53:31.753Z,93.27
2019-05-18T23:56:02.702Z,102.78
2019-05-18T23:58:33.352Z,105.75
